createdAt,value
2022-07-25T00:02:07.522Z,94058.66
2022-07-25T00:04:36.718Z,94057.84
2022-07-25T00:07:04.552Z,94053.47
2022-07-25T00:09:33.655Z,94051.84
2022-07-25T00:12:01.351Z,94051.84
2022-07-25T00:14:29.152Z,94042.88
2022-07-25T00:16:56.898Z,94048.00
2022-07-25T00:19:24.647Z,94045.59
2022-07-25T00:21:52.365Z,94033.03
2022-07-25T00:24:20.135Z,94038.50
2022-07-25T00:26:49.250Z,94033.03
2022-07-25T00:29:16.962Z,94040.44
2022-07-25T00:31:44.814Z,94040.44
2022-07-25T00:34:12.562Z,94035.28
2022-07-25T00:36:40.278Z,94042.66
2022-07-25T00:39:08.001Z,94039.91
2022-07-25T00:41:36.211Z,94041.03
2022-07-25T00:44:05.967Z,94038.00
2022-07-25T00:46:33.965Z,94045.38
2022-07-25T00:49:02.025Z,94043.47
2022-07-25T00:51:29.861Z,94037.19
2022-07-25T00:53:57.610Z,94029.81
2022-07-25T00:56:25.362Z,94026.25
2022-07-25T00:58:53.041Z,94027.88
2022-07-25T01:01:22.243Z,94029.00
2022-07-25T01:03:50.005Z,94028.19
2022-07-25T01:06:17.729Z,94027.88
2022-07-25T01:08:45.464Z,94028.09
2022-07-25T01:11:13.196Z,94029.41
2022-07-25T01:13:40.878Z,94026.56
2022-07-25T01:16:09.209Z,94022.59
2022-07-25T01:18:38.393Z,94018.97
2022-07-25T01:21:07.569Z,94025.97
2022-07-25T01:23:35.326Z,94021.78
2022-07-25T01:26:03.014Z,94019.25
2022-07-25T01:28:30.823Z,94020.59
2022-07-25T01:30:58.551Z,94012.09
2022-07-25T01:33:26.407Z,94013.50
2022-07-25T01:35:54.133Z,94017.34
2022-07-25T01:38:23.227Z,94010.84
2022-07-25T01:40:51.065Z,94006.81
2022-07-25T01:43:18.769Z,94006.63
2022-07-25T01:45:46.572Z,94007.22
2022-07-25T01:48:14.356Z,94005.13
2022-07-25T01:50:42.202Z,94012.78
2022-07-25T01:53:09.915Z,94000.56
2022-07-25T01:55:39.014Z,93994.88
2022-07-25T01:58:07.409Z,93995.16
2022-07-25T02:00:35.709Z,93989.53
2022-07-25T02:03:20.932Z,93991.44
2022-07-25T02:05:48.680Z,93986.59
2022-07-25T02:08:16.407Z,93984.16
2022-07-25T02:10:46.226Z,93983.34
2022-07-25T02:13:13.912Z,93985.25
2022-07-25T02:15:41.734Z,93982.81
2022-07-25T02:18:09.468Z,93978.78
2022-07-25T02:20:37.191Z,93979.41
2022-07-25T02:23:04.949Z,93971.22
2022-07-25T02:25:32.691Z,93978.59
2022-07-25T02:28:01.911Z,93974.53
2022-07-25T02:30:29.854Z,93976.47
2022-07-25T02:32:57.667Z,93976.75
2022-07-25T02:35:25.355Z,93974.84
2022-07-25T02:37:53.097Z,93974.34
2022-07-25T02:40:20.796Z,93973.53
2022-07-25T02:42:48.577Z,93975.97
2022-07-25T02:45:17.986Z,93974.03
2022-07-25T02:47:45.843Z,93974.84
2022-07-25T02:50:15.021Z,93970.50
2022-07-25T02:52:43.124Z,93977.88
2022-07-25T02:55:11.389Z,93971.63
2022-07-25T02:57:39.075Z,93969.97
2022-07-25T03:00:08.426Z,93963.72
2022-07-25T03:02:37.541Z,93962.09
2022-07-25T03:05:07.284Z,93962.38
2022-07-25T03:07:35.086Z,93959.66
2022-07-25T03:10:02.930Z,93965.94
2022-07-25T03:12:38.838Z,93965.44
2022-07-25T03:15:08.789Z,93956.75
2022-07-25T03:17:38.035Z,93957.03
2022-07-25T03:20:06.869Z,93956.22
2022-07-25T03:22:35.094Z,93955.09
2022-07-25T03:25:02.872Z,93946.41
2022-07-25T03:27:30.875Z,93949.13
2022-07-25T03:29:58.560Z,93949.13
2022-07-25T03:32:26.282Z,93949.44
2022-07-25T03:34:55.380Z,93945.91
2022-07-25T03:37:23.052Z,93945.09
2022-07-25T03:39:50.774Z,93940.75
2022-07-25T03:42:20.473Z,93950.56
2022-07-25T03:44:51.899Z,93949.44
2022-07-25T03:47:20.502Z,93948.63
2022-07-25T03:49:48.615Z,93947.00
2022-07-25T03:52:17.750Z,93945.09
2022-07-25T03:54:45.433Z,93947.00
2022-07-25T03:57:13.140Z,93946.47
2022-07-25T03:59:40.837Z,93945.16
2022-07-25T04:02:08.596Z,93943.25
2022-07-25T04:04:36.393Z,93945.97
2022-07-25T04:07:04.189Z,93944.34
2022-07-25T04:09:33.557Z,93941.63
2022-07-25T04:12:01.569Z,93935.03
2022-07-25T04:14:29.268Z,93936.75
2022-07-25T04:16:57.152Z,93933.22
2022-07-25T04:19:26.217Z,93938.38
2022-07-25T04:21:56.541Z,93929.59
2022-07-25T04:24:24.283Z,93927.66
2022-07-25T04:26:53.396Z,93932.31
2022-07-25T04:29:21.087Z,93927.66
2022-07-25T04:31:48.895Z,93933.09
2022-07-25T04:34:16.706Z,93926.03
2022-07-25T04:36:44.592Z,93930.38
2022-07-25T04:39:12.319Z,93928.47
2022-07-25T04:41:40.052Z,93926.84
2022-07-25T04:44:09.745Z,93925.53
2022-07-25T04:46:37.683Z,93922.00
2022-07-25T04:49:05.656Z,93921.47
2022-07-25T04:51:34.089Z,93920.97
2022-07-25T04:54:02.638Z,93919.34
2022-07-25T04:56:30.533Z,93919.34
2022-07-25T04:59:03.123Z,93923.19
2022-07-25T05:01:35.447Z,93923.50
2022-07-25T05:04:04.108Z,93914.50
2022-07-25T05:06:33.166Z,93912.88
2022-07-25T05:09:01.483Z,93916.13
2022-07-25T05:11:29.826Z,93916.13
2022-07-25T05:13:57.547Z,93910.66
2022-07-25T05:16:26.011Z,93916.13
2022-07-25T05:18:55.306Z,93919.97
2022-07-25T05:21:22.983Z,93918.03
2022-07-25T05:23:50.735Z,93917.22
2022-07-25T05:26:18.454Z,93927.03
2022-07-25T05:28:46.179Z,93912.56
2022-07-25T05:31:14.013Z,93922.41
2022-07-25T05:33:42.519Z,93916.13
2022-07-25T05:36:11.719Z,93917.44
2022-07-25T05:38:39.452Z,93919.34
2022-07-25T05:41:07.404Z,93908.44
2022-07-25T05:43:35.134Z,93916.31
2022-07-25T05:46:03.016Z,93912.78
2022-07-25T05:48:30.794Z,93908.94
2022-07-25T05:50:59.407Z,93906.19
2022-07-25T05:53:28.523Z,93914.09
2022-07-25T05:55:56.386Z,93902.34
2022-07-25T05:58:29.434Z,93912.16
2022-07-25T06:00:57.828Z,93912.16
2022-07-25T06:03:28.788Z,93916.22
2022-07-25T06:05:56.928Z,93908.03
2022-07-25T06:08:24.917Z,93905.28
2022-07-25T06:10:54.238Z,93908.03
2022-07-25T06:13:23.603Z,93909.63
2022-07-25T06:15:51.559Z,93906.91
2022-07-25T06:18:19.387Z,93909.63
2022-07-25T06:20:47.157Z,93906.91
2022-07-25T06:23:15.026Z,93904.19
2022-07-25T06:25:42.778Z,93904.69
2022-07-25T06:28:19.478Z,93902.78
2022-07-25T06:30:47.266Z,93907.16
2022-07-25T06:33:15.168Z,93909.88
2022-07-25T06:35:42.897Z,93906.84
2022-07-25T06:38:10.608Z,93907.34
2022-07-25T06:40:38.358Z,93903.81
2022-07-25T06:43:06.050Z,93900.78
2022-07-25T06:45:35.192Z,93901.56
2022-07-25T06:48:02.933Z,93904.31
2022-07-25T06:50:31.195Z,93903.19
2022-07-25T06:52:58.895Z,93900.16
2022-07-25T06:55:26.597Z,93898.25
2022-07-25T06:57:54.590Z,93900.97
2022-07-25T07:00:22.298Z,93900.97
2022-07-25T07:02:53.194Z,93901.47
2022-07-25T07:05:21.004Z,93900.38
2022-07-25T07:07:48.697Z,93901.97
2022-07-25T07:10:16.595Z,93901.97
2022-07-25T07:12:44.363Z,93901.16
2022-07-25T07:15:12.296Z,93904.38
2022-07-25T07:17:40.298Z,93903.59
2022-07-25T07:20:10.128Z,93899.75
2022-07-25T07:22:45.133Z,93905.22
2022-07-25T07:25:14.451Z,93902.19
2022-07-25T07:27:42.239Z,93904.59
2022-07-25T07:30:10.875Z,93898.63
2022-07-25T07:32:38.932Z,93901.38
2022-07-25T07:35:07.576Z,93892.88
2022-07-25T07:37:41.434Z,93899.13
2022-07-25T07:40:17.224Z,93888.19
2022-07-25T07:42:47.112Z,93888.19
2022-07-25T07:45:15.491Z,93892.56
2022-07-25T07:47:43.330Z,93893.06
2022-07-25T07:50:11.308Z,93885.97
2022-07-25T07:52:40.426Z,93887.59
2022-07-25T07:55:26.164Z,93888.41
2022-07-25T07:57:53.897Z,93886.50
2022-07-25T08:00:25.541Z,93890.03
2022-07-25T08:02:54.925Z,93885.38
2022-07-25T08:05:23.404Z,93885.38
2022-07-25T08:07:52.589Z,93886.19
2022-07-25T08:10:21.899Z,93890.53
2022-07-25T08:12:49.903Z,93894.06
2022-07-25T08:15:18.197Z,93886.69
2022-07-25T08:17:46.227Z,93882.31
2022-07-25T08:20:36.452Z,93881.22
2022-07-25T08:23:03.734Z,93882.03
2022-07-25T08:25:32.084Z,93884.75
2022-07-25T08:28:00.010Z,93886.38
2022-07-25T08:30:27.799Z,93874.63
2022-07-25T08:32:57.296Z,93881.72
2022-07-25T08:35:25.732Z,93882.22
2022-07-25T08:37:53.515Z,93879.50
2022-07-25T08:40:23.988Z,93874.81
2022-07-25T08:42:51.836Z,93878.38
2022-07-25T08:45:20.465Z,93878.38
2022-07-25T08:47:48.497Z,93880.28
2022-07-25T08:50:17.321Z,93870.19
2022-07-25T08:52:45.439Z,93869.06
2022-07-25T08:55:16.782Z,93862.47
2022-07-25T08:57:46.418Z,93872.59
2022-07-25T09:00:16.537Z,93858.94
2022-07-25T09:02:44.337Z,93864.88
2022-07-25T09:05:12.088Z,93869.56
2022-07-25T09:07:40.346Z,93872.00
2022-07-25T09:10:15.445Z,93870.06
2022-07-25T09:12:43.362Z,93864.59
2022-07-25T09:15:12.858Z,93866.22
2022-07-25T09:17:41.267Z,93868.16
2022-07-25T09:20:09.878Z,93867.03
2022-07-25T09:22:46.933Z,93865.91
2022-07-25T09:25:25.196Z,93866.72
2022-07-25T09:27:53.003Z,93863.19
2022-07-25T09:30:22.096Z,93857.72
2022-07-25T09:33:00.615Z,93852.25
2022-07-25T09:35:31.795Z,93860.13
2022-07-25T09:38:11.154Z,93855.47
2022-07-25T09:40:38.834Z,93858.22
2022-07-25T09:43:06.969Z,93862.06
2022-07-25T09:45:36.076Z,93857.38
2022-07-25T09:48:04.988Z,93854.34
2022-07-25T09:50:33.438Z,93855.97
2022-07-25T09:53:02.427Z,93856.78
2022-07-25T09:55:30.720Z,93856.47
2022-07-25T09:57:58.399Z,93855.34
2022-07-25T10:00:27.484Z,93854.75
2022-07-25T10:03:05.248Z,93847.84
2022-07-25T10:05:41.066Z,93850.28
2022-07-25T10:08:09.906Z,93851.06
2022-07-25T10:10:39.744Z,93839.34
2022-07-25T10:13:11.196Z,93854.63
2022-07-25T10:15:46.657Z,93849.16
2022-07-25T10:18:16.136Z,93853.50
2022-07-25T10:20:44.025Z,93852.69
2022-07-25T10:23:19.189Z,93853.81
2022-07-25T10:25:49.079Z,93851.41
2022-07-25T10:28:21.241Z,93849.47
2022-07-25T10:30:49.057Z,93848.34
2022-07-25T10:33:19.205Z,93848.66
2022-07-25T10:35:47.231Z,93847.53
2022-07-25T10:38:14.965Z,93855.75
2022-07-25T10:40:43.887Z,93847.53
2022-07-25T10:43:13.469Z,93848.34
2022-07-25T10:45:45.841Z,93847.53
2022-07-25T10:48:21.252Z,93849.47
2022-07-25T10:50:56.531Z,93836.13
2022-07-25T10:53:38.402Z,93841.25
2022-07-25T10:56:10.616Z,93835.78
2022-07-25T10:58:47.063Z,93831.44
2022-07-25T11:01:15.492Z,93843.19
2022-07-25T11:03:45.620Z,93839.34
2022-07-25T11:06:15.266Z,93817.47
2022-07-25T11:08:43.346Z,93816.66
2022-07-25T11:11:11.449Z,93816.66
2022-07-25T11:13:39.972Z,93820.22
2022-07-25T11:16:08.395Z,93813.63
2022-07-25T11:18:37.631Z,93812.78
2022-07-25T11:21:07.168Z,93816.34
2022-07-25T11:23:36.841Z,93816.34
2022-07-25T11:26:06.167Z,93808.94
2022-07-25T11:28:44.214Z,93806.22
2022-07-25T11:31:12.435Z,93817.97
2022-07-25T11:33:40.658Z,93815.22
2022-07-25T11:36:09.711Z,93814.13
2022-07-25T11:38:39.011Z,93807.84
2022-07-25T11:41:07.275Z,93812.19
2022-07-25T11:43:35.046Z,93805.91
2022-07-25T11:46:03.690Z,93809.47
2022-07-25T11:48:33.181Z,93813.00
2022-07-25T11:51:14.911Z,93806.41
2022-07-25T11:53:48.141Z,93803.66
2022-07-25T11:56:40.661Z,93803.66
2022-07-25T11:59:05.234Z,93802.56
2022-07-25T12:01:37.252Z,93799.81
2022-07-25T12:04:15.260Z,93795.16
2022-07-25T12:06:43.414Z,93804.50
2022-07-25T12:09:18.918Z,93795.16
2022-07-25T12:11:47.454Z,93788.88
2022-07-25T12:14:15.287Z,93786.16
2022-07-25T12:16:44.423Z,93789.69
2022-07-25T12:19:19.885Z,93786.97
2022-07-25T12:21:47.615Z,93784.22
2022-07-25T12:24:16.737Z,93780.38
2022-07-25T12:26:44.467Z,93776.81
2022-07-25T12:29:12.192Z,93772.19
2022-07-25T12:31:39.921Z,93777.66
2022-07-25T12:34:07.611Z,93785.56
2022-07-25T12:36:41.116Z,93782.81
2022-07-25T12:39:09.328Z,93778.63
2022-07-25T12:41:40.006Z,93771.25
2022-07-25T12:44:07.706Z,93769.63
2022-07-25T12:46:36.062Z,93770.75
2022-07-25T12:49:04.176Z,93763.03
2022-07-25T12:51:32.132Z,93764.97
2022-07-25T12:53:59.840Z,93760.31
2022-07-25T12:56:27.535Z,93760.31
2022-07-25T12:58:56.791Z,93757.56
2022-07-25T13:01:24.828Z,93754.84
2022-07-25T13:03:52.709Z,93752.91
2022-07-25T13:06:20.797Z,93743.91
2022-07-25T13:08:48.535Z,93742.78
2022-07-25T13:11:16.281Z,93750.97
2022-07-25T13:13:43.963Z,93738.94
2022-07-25T13:16:13.111Z,93733.47
2022-07-25T13:18:40.931Z,93738.09
2022-07-25T13:21:08.703Z,93749.38
2022-07-25T13:23:36.604Z,93731.84
2022-07-25T13:26:04.356Z,93728.28
2022-07-25T13:28:32.329Z,93729.09
2022-07-25T13:31:01.557Z,93735.69
2022-07-25T13:33:30.808Z,93728.00
2022-07-25T13:35:58.623Z,93724.44
2022-07-25T13:38:26.359Z,93726.03
2022-07-25T13:40:58.684Z,93725.25
2022-07-25T13:43:26.725Z,93726.88
2022-07-25T13:45:54.511Z,93706.13
2022-07-25T13:48:31.613Z,93695.97
2022-07-25T13:51:01.369Z,93702.56
2022-07-25T13:53:30.535Z,93704.16
2022-07-25T13:56:01.443Z,93706.13
2022-07-25T13:58:29.556Z,93695.97
2022-07-25T14:00:57.397Z,93700.34
2022-07-25T14:03:25.146Z,93701.13
2022-07-25T14:05:52.907Z,93685.22
2022-07-25T14:08:22.253Z,93691.50
2022-07-25T14:10:50.049Z,93692.28
2022-07-25T14:13:17.761Z,93681.34
2022-07-25T14:15:45.881Z,93685.69
2022-07-25T14:18:13.675Z,93681.34
2022-07-25T14:20:41.354Z,93679.75
2022-07-25T14:23:09.064Z,93679.75
2022-07-25T14:25:38.244Z,93683.59
2022-07-25T14:28:06.130Z,93668.00
2022-07-25T14:30:33.816Z,93668.81
2022-07-25T14:33:01.730Z,93670.75
2022-07-25T14:35:32.506Z,93667.19
2022-07-25T14:38:00.694Z,93670.75
2022-07-25T14:40:28.435Z,93664.47
2022-07-25T14:42:57.521Z,93660.94
2022-07-25T14:45:25.278Z,93653.53
2022-07-25T14:47:53.896Z,93654.66
2022-07-25T14:50:21.772Z,93654.66
2022-07-25T14:52:49.454Z,93654.66
2022-07-25T14:55:17.144Z,93654.34
2022-07-25T14:57:45.253Z,93662.22
2022-07-25T15:00:15.528Z,93642.78
2022-07-25T15:02:43.629Z,93646.84
2022-07-25T15:05:11.415Z,93649.25
2022-07-25T15:07:39.197Z,93645.88
2022-07-25T15:10:08.309Z,93627.25
2022-07-25T15:12:36.021Z,93638.50
2022-07-25T15:15:12.407Z,93631.41
2022-07-25T15:17:41.495Z,93623.50
2022-07-25T15:20:10.535Z,93628.97
2022-07-25T15:22:38.273Z,93627.38
2022-07-25T15:25:59.604Z,93624.63
2022-07-25T15:27:54.501Z,93621.09
2022-07-25T15:30:27.310Z,93623.50
2022-07-25T15:32:58.197Z,93618.03
2022-07-25T15:35:25.899Z,93611.78
2022-07-25T15:37:53.602Z,93614.50
2022-07-25T15:40:21.673Z,93608.22
2022-07-25T15:42:49.566Z,93606.63
2022-07-25T15:45:36.237Z,93604.69
2022-07-25T15:48:07.853Z,93601.97
2022-07-25T15:50:35.931Z,93604.69
2022-07-25T15:53:03.673Z,93606.31
2022-07-25T15:55:31.738Z,93600.84
2022-07-25T15:57:59.526Z,93595.69
2022-07-25T16:00:29.637Z,93585.56
2022-07-25T16:02:58.126Z,93591.03
2022-07-25T16:05:27.300Z,93596.50
2022-07-25T16:07:55.005Z,93591.03
2022-07-25T16:10:22.872Z,93591.81
2022-07-25T16:12:50.600Z,93587.47
2022-07-25T16:15:19.163Z,93591.31
2022-07-25T16:17:46.997Z,93591.59
2022-07-25T16:20:14.860Z,93594.34
2022-07-25T16:22:44.070Z,93592.72
2022-07-25T16:25:11.742Z,93592.72
2022-07-25T16:27:39.672Z,93593.28
2022-07-25T16:30:08.781Z,93590.81
2022-07-25T16:32:36.528Z,93590.00
2022-07-25T16:35:04.555Z,93585.66
2022-07-25T16:37:32.718Z,93588.38
2022-07-25T16:40:01.851Z,93585.66
2022-07-25T16:42:29.556Z,93589.19
2022-07-25T16:44:57.239Z,93589.19
2022-07-25T16:47:25.208Z,93583.72
2022-07-25T16:49:52.927Z,93571.97
2022-07-25T16:52:20.738Z,93578.25
2022-07-25T16:54:48.448Z,93573.59
2022-07-25T16:57:17.539Z,93578.25
2022-07-25T16:59:45.782Z,93574.41
2022-07-25T17:02:13.714Z,93572.19
2022-07-25T17:04:41.567Z,93579.25
2022-07-25T17:07:09.761Z,93579.25
2022-07-25T17:09:37.512Z,93565.28
2022-07-25T17:12:06.029Z,93570.41
2022-07-25T17:14:36.671Z,93566.56
2022-07-25T17:17:04.734Z,93556.75
2022-07-25T17:19:35.619Z,93564.94
2022-07-25T17:22:03.375Z,93575.59
2022-07-25T17:24:31.485Z,93573.66
2022-07-25T17:26:59.175Z,93569.00
2022-07-25T17:29:27.123Z,93575.28
2022-07-25T17:31:56.366Z,93578.00
2022-07-25T17:34:25.306Z,93577.69
2022-07-25T17:36:53.078Z,93587.00
2022-07-25T17:39:21.131Z,93581.22
2022-07-25T17:41:49.022Z,93586.38
2022-07-25T17:44:17.252Z,93594.56
2022-07-25T17:46:45.344Z,93586.69
2022-07-25T17:49:14.636Z,93583.97
2022-07-25T17:51:42.436Z,93587.50
2022-07-25T17:54:10.656Z,93586.38
2022-07-25T17:56:38.848Z,93585.56
2022-07-25T17:59:07.210Z,93585.56
2022-07-25T18:01:34.948Z,93573.81
2022-07-25T18:04:03.095Z,93572.22
2022-07-25T18:06:32.824Z,93567.56
2022-07-25T18:09:01.172Z,93576.88
2022-07-25T18:11:28.997Z,93580.41
2022-07-25T18:13:56.762Z,93591.34
2022-07-25T18:16:24.764Z,93591.84
2022-07-25T18:18:52.778Z,93594.75
2022-07-25T18:21:20.580Z,93596.22
2022-07-25T18:23:49.843Z,93594.94
2022-07-25T18:26:17.924Z,93598.81
2022-07-25T18:28:45.873Z,93599.66
2022-07-25T18:31:14.486Z,93599.97
2022-07-25T18:33:42.491Z,93595.97
2022-07-25T18:36:10.711Z,93598.88
2022-07-25T18:38:38.841Z,93599.50
2022-07-25T18:41:28.697Z,93600.50
2022-07-25T18:43:57.472Z,93590.53
2022-07-25T18:46:25.485Z,93591.03
2022-07-25T18:48:54.041Z,93593.94
2022-07-25T18:51:22.664Z,93586.19
2022-07-25T18:53:50.926Z,93591.03
2022-07-25T18:56:20.676Z,93593.44
2022-07-25T18:58:48.453Z,93588.44
2022-07-25T19:01:16.399Z,93585.06
2022-07-25T19:03:44.183Z,93593.78
2022-07-25T19:06:12.132Z,93600.34
2022-07-25T19:08:40.407Z,93602.63
2022-07-25T19:11:08.522Z,93603.28
2022-07-25T19:13:49.673Z,93600.69
2022-07-25T19:16:18.389Z,93585.53
2022-07-25T19:19:05.176Z,93602.31
2022-07-25T19:21:33.058Z,93641.22
2022-07-25T19:24:00.760Z,93686.81
2022-07-25T19:26:28.527Z,93738.34
2022-07-25T19:28:58.650Z,93781.97
2022-07-25T19:31:27.046Z,93807.72
2022-07-25T19:33:55.272Z,93776.00
2022-07-25T19:36:23.044Z,93794.34
2022-07-25T19:38:50.773Z,93815.75
2022-07-25T19:41:18.505Z,93788.22
2022-07-25T19:43:46.249Z,93807.19
2022-07-25T19:46:15.389Z,93785.13
2022-07-25T19:48:43.276Z,93776.91
2022-07-25T19:51:11.035Z,93778.66
2022-07-25T19:53:38.869Z,93795.69
2022-07-25T19:56:08.428Z,93810.50
2022-07-25T19:58:38.845Z,93816.31
2022-07-25T20:01:08.283Z,93810.00
2022-07-25T20:03:37.380Z,93802.13
2022-07-25T20:06:08.275Z,93801.63
2022-07-25T20:08:36.410Z,93793.72
2022-07-25T20:11:04.386Z,93795.97
2022-07-25T20:13:32.164Z,93784.22
2022-07-25T20:15:59.936Z,93778.25
2022-07-25T20:18:27.744Z,93759.41
2022-07-25T20:20:56.812Z,93761.66
2022-07-25T20:23:24.674Z,93749.09
2022-07-25T20:25:52.580Z,93723.97
2022-07-25T20:28:20.280Z,93723.19
2022-07-25T20:30:48.071Z,93746.69
2022-07-25T20:33:15.781Z,93768.06
2022-07-25T20:35:43.572Z,93781.72
2022-07-25T20:38:12.740Z,93814.56
2022-07-25T20:40:46.277Z,93844.66
2022-07-25T20:43:16.427Z,93835.16
2022-07-25T20:45:44.215Z,93821.78
2022-07-25T20:48:12.022Z,93834.16
2022-07-25T20:50:39.799Z,93816.94
2022-07-25T20:53:07.632Z,93827.69
2022-07-25T20:55:36.760Z,93854.56
2022-07-25T20:58:04.572Z,93877.56
2022-07-25T21:00:32.603Z,93893.47
2022-07-25T21:03:00.492Z,93895.72
2022-07-25T21:05:28.360Z,93903.09
2022-07-25T21:07:56.112Z,93897.88
2022-07-25T21:10:23.948Z,93902.56
2022-07-25T21:12:55.374Z,93900.63
2022-07-25T21:15:23.256Z,93911.56
2022-07-25T21:17:51.103Z,93913.81
2022-07-25T21:20:18.908Z,93935.69
2022-07-25T21:22:46.668Z,93946.13
2022-07-25T21:25:14.375Z,93952.09
2022-07-25T21:27:42.115Z,93932.44
2022-07-25T21:30:12.180Z,93943.09
2022-07-25T21:32:40.869Z,93984.91
2022-07-25T21:35:09.340Z,94007.91
2022-07-25T21:37:37.130Z,94016.09
2022-07-25T21:40:05.447Z,94031.72
2022-07-25T21:42:33.207Z,94044.56
2022-07-25T21:45:00.944Z,94050.53
2022-07-25T21:47:30.043Z,94039.94
2022-07-25T21:50:19.244Z,94005.50
2022-07-25T21:52:52.679Z,94017.56
2022-07-25T21:55:20.791Z,94038.09
2022-07-25T21:57:48.924Z,94036.78
2022-07-25T22:00:16.961Z,94028.91
2022-07-25T22:02:46.756Z,94032.72
2022-07-25T22:05:14.820Z,94024.53
2022-07-25T22:07:42.575Z,93999.41
2022-07-25T22:10:11.169Z,93993.94
2022-07-25T22:12:39.231Z,93999.41
2022-07-25T22:15:07.724Z,94009.22
2022-07-25T22:17:48.793Z,94024.03
2022-07-25T22:20:18.874Z,94026.75
2022-07-25T22:22:46.866Z,94038.81
2022-07-25T22:25:14.669Z,94044.59
2022-07-25T22:27:42.569Z,94053.91
2022-07-25T22:30:17.951Z,94055.00
2022-07-25T22:32:46.000Z,94044.88
2022-07-25T22:35:13.837Z,94035.06
2022-07-25T22:37:43.005Z,94034.25
2022-07-25T22:40:11.787Z,94047.13
2022-07-25T22:42:39.519Z,94073.34
2022-07-25T22:45:08.263Z,94114.34
2022-07-25T22:47:36.057Z,94105.88
2022-07-25T22:50:04.013Z,94096.00
2022-07-25T22:52:31.847Z,94105.34
2022-07-25T22:55:00.936Z,94090.88
2022-07-25T22:57:28.769Z,94095.50
2022-07-25T22:59:56.520Z,94121.22
2022-07-25T23:02:25.945Z,94129.44
2022-07-25T23:04:53.657Z,94100.47
2022-07-25T23:07:21.417Z,94105.72
2022-07-25T23:09:49.284Z,94108.47
2022-07-25T23:12:18.393Z,94104.13
2022-07-25T23:14:46.144Z,94086.91
2022-07-25T23:17:20.010Z,94078.22
2022-07-25T23:19:48.688Z,94066.16
2022-07-25T23:22:16.513Z,94071.63
2022-07-25T23:24:44.284Z,94063.72
2022-07-25T23:27:12.084Z,94056.63
2022-07-25T23:29:41.283Z,94050.06
2022-07-25T23:32:08.927Z,94048.44
2022-07-25T23:34:36.834Z,94059.38
2022-07-25T23:37:04.929Z,94059.38
2022-07-25T23:39:33.416Z,94070.31
2022-07-25T23:42:01.305Z,94071.41
2022-07-25T23:44:29.086Z,94069.81
2022-07-25T23:46:59.905Z,94076.88
2022-07-25T23:49:29.370Z,94076.06
2022-07-25T23:51:57.515Z,94071.41
2022-07-25T23:54:25.710Z,94068.69
2022-07-25T23:56:53.451Z,94067.56
2022-07-25T23:59:21.273Z,94072.22
